Time;durP1;ratioP1;P1;durP2;ratioP2;P2;SDS_P1;SDS_P2;PMS_P1;PMS_P2;Temp;Humidity;BMP_temperature;BMP_pressure;BME280_temperature;BME280_humidity;BME280_pressure;Samples;Min_cycle;Max_cycle;Signal;HPM_P1;HPM_P2
2022/09/06 00:00:05;;;;;;;7.75;7.25;;;;;;;;;;4999099;28;20045;-58
2022/09/06 00:02:32;;;;;;;7.85;7.35;;;;;;;;;;4999557;28;20598;-58
2022/09/06 00:04:57;;;;;;;7.93;7.43;;;;;;;;;;4996981;28;20034;-58
2022/09/06 00:07:23;;;;;;;8.50;7.95;;;;;;;;;;4997453;28;20038;-58
2022/09/06 00:09:48;;;;;;;8.55;8.05;;;;;;;;;;4995453;28;20025;-58
2022/09/06 00:12:13;;;;;;;11.05;7.10;;;;;;;;;;4997637;28;20025;-58
2022/09/06 00:14:39;;;;;;;6.75;6.28;;;;;;;;;;4996885;28;20046;-58
2022/09/06 00:17:04;;;;;;;7.55;7.05;;;;;;;;;;4996728;28;20401;-58
2022/09/06 00:19:29;;;;;;;7.45;6.95;;;;;;;;;;4994446;28;20061;-58
2022/09/06 00:21:55;;;;;;;7.78;7.28;;;;;;;;;;4994127;28;20101;-58
2022/09/06 00:24:20;;;;;;;7.00;6.50;;;;;;;;;;4997101;28;20100;-58
2022/09/06 00:26:45;;;;;;;7.25;6.75;;;;;;;;;;4998798;28;20026;-58
2022/09/06 00:29:11;;;;;;;7.20;6.63;;;;;;;;;;4997959;28;20034;-58
2022/09/06 00:31:36;;;;;;;8.27;7.75;;;;;;;;;;5000061;28;20037;-58
2022/09/06 00:34:02;;;;;;;8.90;8.30;;;;;;;;;;4999422;28;20145;-58
2022/09/06 00:36:27;;;;;;;8.25;7.65;;;;;;;;;;4997819;28;20030;-58
2022/09/06 00:38:52;;;;;;;6.88;6.38;;;;;;;;;;4995486;28;20164;-58
2022/09/06 00:41:18;;;;;;;9.32;8.65;;;;;;;;;;5000709;28;20076;-58
2022/09/06 00:43:43;;;;;;;8.52;7.70;;;;;;;;;;4998711;28;20038;-58
2022/09/06 00:46:14;;;;;;;7.15;6.65;;;;;;;;;;5001705;28;20037;-58
2022/09/06 00:48:41;;;;;;;6.78;6.28;;;;;;;;;;4996809;28;20030;-58
2022/09/06 00:51:09;;;;;;;7.32;6.82;;;;;;;;;;4998847;28;20018;-59
2022/09/06 00:53:35;;;;;;;6.72;6.22;;;;;;;;;;4999587;28;20031;-58
2022/09/06 00:56:01;;;;;;;7.13;6.63;;;;;;;;;;4998662;28;20041;-58
2022/09/06 00:58:27;;;;;;;6.47;6.07;;;;;;;;;;4998291;28;20034;-58
2022/09/06 01:00:52;;;;;;;6.47;5.97;;;;;;;;;;4998246;28;20034;-58
2022/09/06 01:03:19;;;;;;;6.47;5.97;;;;;;;;;;4998634;28;20046;-59
2022/09/06 01:06:14;;;;;;;7.32;6.82;;;;;;;;;;4997931;28;20026;-58
2022/09/06 01:09:16;;;;;;;7.50;7.00;;;;;;;;;;5000952;28;20034;-58
2022/09/06 01:12:00;;;;;;;6.57;6.07;;;;;;;;;;4997935;28;20053;-59
2022/09/06 01:15:07;;;;;;;7.07;6.57;;;;;;;;;;4998798;28;20106;-59
2022/09/06 01:17:45;;;;;;;7.60;7.10;;;;;;;;;;4987035;28;20042;-59
2022/09/06 01:20:21;;;;;;;7.65;7.15;;;;;;;;;;4996385;28;20466;-58
2022/09/06 01:23:13;;;;;;;7.55;7.05;;;;;;;;;;4997128;28;20038;-59
2022/09/06 01:26:09;;;;;;;7.13;6.63;;;;;;;;;;4993715;28;20036;-59
2022/09/06 01:28:38;;;;;;;7.53;7.03;;;;;;;;;;4998164;28;20044;-59
2022/09/06 01:31:40;;;;;;;6.80;6.30;;;;;;;;;;4998099;28;20089;-59
2022/09/06 01:34:05;;;;;;;8.25;7.65;;;;;;;;;;5002104;28;20030;-60
2022/09/06 01:36:56;;;;;;;6.05;5.65;;;;;;;;;;4998485;28;20182;-59
2022/09/06 01:39:28;;;;;;;6.82;6.32;;;;;;;;;;4994702;28;20033;-59
2022/09/06 01:41:59;;;;;;;9.73;7.32;;;;;;;;;;4996185;28;20113;-59
2022/09/06 01:44:25;;;;;;;;;;;;;;;;;;4997518;28;20030;-58
2022/09/06 01:47:07;;;;;;;6.40;6.00;;;;;;;;;;4994151;28;19913;-59
2022/09/06 01:49:53;;;;;;;7.25;6.75;;;;;;;;;;4997983;28;20136;-59
2022/09/06 01:53:00;;;;;;;6.55;6.05;;;;;;;;;;4995904;28;20120;-60
2022/09/06 01:55:43;;;;;;;5.68;5.28;;;;;;;;;;4996581;28;20038;-59
2022/09/06 01:58:27;;;;;;;6.32;5.93;;;;;;;;;;4994461;28;20053;-58
2022/09/06 02:01:27;;;;;;;5.75;5.35;;;;;;;;;;4996916;28;20045;-59
2022/09/06 02:04:06;;;;;;;5.80;5.40;;;;;;;;;;4995713;28;20026;-59
2022/09/06 02:06:47;;;;;;;6.43;5.93;;;;;;;;;;4996367;28;20026;-59
2022/09/06 02:09:20;;;;;;;6.30;5.80;;;;;;;;;;4997620;28;20044;-59
2022/09/06 02:11:52;;;;;;;6.50;6.00;;;;;;;;;;4995766;28;20450;-60
2022/09/06 02:15:02;;;;;;;6.55;6.07;;;;;;;;;;4993952;28;20034;-59
2022/09/06 02:17:36;;;;;;;6.45;5.93;;;;;;;;;;4990173;28;20046;-60
2022/09/06 02:20:11;;;;;;;6.20;5.80;;;;;;;;;;4997365;28;20026;-60
2022/09/06 02:22:40;;;;;;;6.38;5.97;;;;;;;;;;4996044;28;20136;-60
2022/09/06 02:25:09;;;;;;;6.68;6.20;;;;;;;;;;4997111;28;20106;-59
2022/09/06 02:27:36;;;;;;;7.65;7.15;;;;;;;;;;4992989;28;20097;-60
2022/09/06 02:30:03;;;;;;;7.65;7.15;;;;;;;;;;4994638;28;20026;-59
2022/09/06 02:32:31;;;;;;;8.57;7.97;;;;;;;;;;4999690;28;20034;-60
2022/09/06 02:34:57;;;;;;;7.40;6.90;;;;;;;;;;4996441;28;20066;-60
2022/09/06 02:37:27;;;;;;;7.72;7.22;;;;;;;;;;4993832;28;20492;-59
2022/09/06 02:39:54;;;;;;;9.63;9.02;;;;;;;;;;4995149;28;20082;-59
2022/09/06 02:42:21;;;;;;;9.43;8.82;;;;;;;;;;4994390;28;20372;-59
2022/09/06 02:44:48;;;;;;;10.00;9.40;;;;;;;;;;4997420;28;20375;-57
2022/09/06 02:47:13;;;;;;;11.35;10.65;;;;;;;;;;4995297;28;20030;-57
2022/09/06 02:49:39;;;;;;;12.40;11.63;;;;;;;;;;4998877;28;20367;-59
2022/09/06 02:52:04;;;;;;;9.82;9.23;;;;;;;;;;4996498;28;20105;-57
2022/09/06 02:54:30;;;;;;;9.88;9.27;;;;;;;;;;4993844;28;20022;-57
2022/09/06 02:56:55;;;;;;;8.45;7.95;;;;;;;;;;4992372;28;20038;-57
2022/09/06 02:59:20;;;;;;;7.93;7.43;;;;;;;;;;4995856;28;20383;-57
2022/09/06 03:01:46;;;;;;;9.27;8.57;;;;;;;;;;4994269;28;20447;-58
2022/09/06 03:04:11;;;;;;;7.93;7.22;;;;;;;;;;4994871;28;20618;-57
2022/09/06 03:06:36;;;;;;;8.85;8.25;;;;;;;;;;4992231;28;20034;-58
2022/09/06 03:09:02;;;;;;;11.10;10.43;;;;;;;;;;4994873;28;20035;-58
2022/09/06 03:11:27;;;;;;;10.32;9.73;;;;;;;;;;4996577;28;20569;-57
2022/09/06 03:13:52;;;;;;;9.68;8.98;;;;;;;;;;4995764;28;20014;-58
2022/09/06 03:16:18;;;;;;;12.45;11.75;;;;;;;;;;4996936;28;20029;-59
2022/09/06 03:18:44;;;;;;;13.43;12.63;;;;;;;;;;4996659;28;20065;-59
2022/09/06 03:21:10;;;;;;;13.55;12.75;;;;;;;;;;4994499;28;20448;-59
2022/09/06 03:23:37;;;;;;;15.63;14.70;;;;;;;;;;4995803;28;20038;-59
2022/09/06 03:26:03;;;;;;;14.63;13.82;;;;;;;;;;4995385;28;20046;-59
2022/09/06 03:28:28;;;;;;;13.77;12.98;;;;;;;;;;4995107;28;20096;-59
2022/09/06 03:30:54;;;;;;;14.70;13.90;;;;;;;;;;4996385;28;20113;-59
2022/09/06 03:33:20;;;;;;;17.70;16.70;;;;;;;;;;4994579;28;20503;-59
2022/09/06 03:35:51;;;;;;;13.93;13.13;;;;;;;;;;4993209;28;20030;-59
2022/09/06 03:38:16;;;;;;;13.02;12.25;;;;;;;;;;4996449;28;20087;-59
2022/09/06 03:40:46;;;;;;;13.18;12.38;;;;;;;;;;4995183;28;20033;-59
2022/09/06 03:43:12;;;;;;;11.90;11.20;;;;;;;;;;4993513;28;20049;-58
2022/09/06 03:45:38;;;;;;;12.25;11.55;;;;;;;;;;4995684;28;20038;-59
2022/09/06 03:48:03;;;;;;;10.70;10.05;;;;;;;;;;4997480;28;20209;-59
2022/09/06 03:50:29;;;;;;;10.93;10.23;;;;;;;;;;4993256;28;20037;-59
2022/09/06 03:52:54;;;;;;;11.65;10.95;;;;;;;;;;4998067;28;20076;-59
2022/09/06 03:55:19;;;;;;;12.73;11.93;;;;;;;;;;4997374;28;20379;-59
2022/09/06 03:57:44;;;;;;;11.75;11.05;;;;;;;;;;4994052;28;20535;-59
2022/09/06 04:00:10;;;;;;;11.95;11.25;;;;;;;;;;4994161;28;20073;-59
2022/09/06 04:02:36;;;;;;;12.02;11.23;;;;;;;;;;4998748;28;20049;-59
2022/09/06 04:05:01;;;;;;;11.75;11.05;;;;;;;;;;4997395;28;20070;-59
2022/09/06 04:07:26;;;;;;;12.48;11.68;;;;;;;;;;4998591;28;20095;-58
2022/09/06 04:09:52;;;;;;;12.93;12.15;;;;;;;;;;4998535;28;20034;-59
2022/09/06 04:12:17;;;;;;;13.00;12.20;;;;;;;;;;4997715;28;20128;-58
2022/09/06 04:14:42;;;;;;;14.38;13.57;;;;;;;;;;4998736;28;20030;-58
2022/09/06 04:17:08;;;;;;;13.48;12.68;;;;;;;;;;4999668;28;20053;-59
2022/09/06 04:19:33;;;;;;;14.00;13.20;;;;;;;;;;4998668;28;20037;-59
2022/09/06 04:21:59;;;;;;;13.13;12.32;;;;;;;;;;4997963;28;20132;-59
2022/09/06 04:24:24;;;;;;;13.00;12.20;;;;;;;;;;4997638;28;20092;-59
2022/09/06 04:26:49;;;;;;;13.20;12.40;;;;;;;;;;4997184;28;20066;-58
2022/09/06 04:29:15;;;;;;;11.40;10.70;;;;;;;;;;4995879;28;20045;-59
2022/09/06 04:31:40;;;;;;;12.60;11.90;;;;;;;;;;4997884;28;20033;-59
2022/09/06 04:34:05;;;;;;;12.10;11.40;;;;;;;;;;4996147;28;20141;-59
2022/09/06 04:36:31;;;;;;;11.77;11.07;;;;;;;;;;4998480;28;20101;-58
2022/09/06 04:38:56;;;;;;;11.70;11.00;;;;;;;;;;4998746;28;20041;-58
2022/09/06 04:41:22;;;;;;;10.15;9.55;;;;;;;;;;4996564;28;20034;-59
2022/09/06 04:43:48;;;;;;;11.55;10.85;;;;;;;;;;4999808;28;20053;-58
2022/09/06 04:46:20;;;;;;;10.25;9.65;;;;;;;;;;4997412;28;20041;-58
2022/09/06 04:48:46;;;;;;;11.77;11.07;;;;;;;;;;4999966;28;20037;-59
2022/09/06 04:51:12;;;;;;;11.38;10.68;;;;;;;;;;4995451;28;20725;-59
2022/09/06 04:53:37;;;;;;;11.80;11.10;;;;;;;;;;4988110;28;20047;-60
2022/09/06 04:56:03;;;;;;;10.43;9.80;;;;;;;;;;5000752;28;20104;-59
2022/09/06 04:58:29;;;;;;;11.43;10.73;;;;;;;;;;4998039;28;20034;-58
2022/09/06 05:00:54;;;;;;;11.10;10.40;;;;;;;;;;4994666;28;20030;-58
2022/09/06 05:03:20;;;;;;;9.85;9.25;;;;;;;;;;4998869;28;20057;-58
2022/09/06 05:05:45;;;;;;;11.50;10.80;;;;;;;;;;4999009;28;20030;-58
2022/09/06 05:08:10;;;;;;;10.55;9.95;;;;;;;;;;4997015;28;20037;-59
2022/09/06 05:10:36;;;;;;;10.05;9.45;;;;;;;;;;4997175;28;20069;-57
2022/09/06 05:13:01;;;;;;;11.27;10.57;;;;;;;;;;5001370;28;20040;-58
2022/09/06 05:15:26;;;;;;;11.23;10.52;;;;;;;;;;5001126;28;20038;-58
2022/09/06 05:17:52;;;;;;;12.63;11.93;;;;;;;;;;4997746;28;20030;-58
2022/09/06 05:20:17;;;;;;;13.05;12.25;;;;;;;;;;4995470;28;20026;-58
2022/09/06 05:22:51;;;;;;;14.15;13.35;;;;;;;;;;4995742;28;20109;-58
2022/09/06 05:25:16;;;;;;;12.63;11.85;;;;;;;;;;4998360;28;20034;-58
2022/09/06 05:27:41;;;;;;;10.73;10.13;;;;;;;;;;4998038;28;20601;-58
2022/09/06 05:30:07;;;;;;;12.32;11.63;;;;;;;;;;4995327;28;20041;-58
2022/09/06 05:32:33;;;;;;;15.02;14.13;;;;;;;;;;4997301;28;20043;-58
2022/09/06 05:34:58;;;;;;;15.75;14.85;;;;;;;;;;4995794;28;20045;-58
2022/09/06 05:37:23;;;;;;;15.63;14.52;;;;;;;;;;4994842;28;20023;-58
2022/09/06 05:39:49;;;;;;;16.38;15.25;;;;;;;;;;4994844;28;20030;-58
2022/09/06 05:42:14;;;;;;;17.90;16.90;;;;;;;;;;4997724;28;20058;-58
2022/09/06 05:44:39;;;;;;;19.23;18.13;;;;;;;;;;4997954;28;20038;-58
2022/09/06 05:47:05;;;;;;;18.80;17.70;;;;;;;;;;4997116;28;20030;-58
2022/09/06 05:49:31;;;;;;;18.00;17.00;;;;;;;;;;4997543;28;20049;-58
2022/09/06 05:51:56;;;;;;;17.38;16.38;;;;;;;;;;4997364;28;20513;-58
2022/09/06 05:54:22;;;;;;;17.77;16.77;;;;;;;;;;4994096;28;20388;-58
2022/09/06 05:56:48;;;;;;;18.00;17.00;;;;;;;;;;4998473;28;20041;-58
2022/09/06 05:59:13;;;;;;;17.15;16.15;;;;;;;;;;4995070;28;20026;-58
2022/09/06 06:01:50;;;;;;;18.30;17.30;;;;;;;;;;4999807;28;20096;-58
2022/09/06 06:04:17;;;;;;;17.60;16.50;;;;;;;;;;4997982;28;20026;-58
2022/09/06 06:06:44;;;;;;;18.10;17.10;;;;;;;;;;5000802;28;20624;-59
2022/09/06 06:09:09;;;;;;;18.67;17.67;;;;;;;;;;4996736;28;20030;-58
2022/09/06 06:11:35;;;;;;;19.85;18.75;;;;;;;;;;4997308;28;20048;-58
2022/09/06 06:14:02;;;;;;;17.60;16.60;;;;;;;;;;4999344;28;20022;-58
2022/09/06 06:16:27;;;;;;;18.85;17.85;;;;;;;;;;4997732;28;20047;-58
2022/09/06 06:18:53;;;;;;;18.63;17.63;;;;;;;;;;4996953;28;20104;-59
2022/09/06 06:21:21;;;;;;;20.98;19.88;;;;;;;;;;5001582;28;20337;-58
2022/09/06 06:23:50;;;;;;;20.92;19.60;;;;;;;;;;4995764;28;20111;-58
2022/09/06 06:26:18;;;;;;;19.98;18.77;;;;;;;;;;4994524;28;20025;-58
2022/09/06 06:28:43;;;;;;;19.40;18.30;;;;;;;;;;4989110;28;20041;-58
2022/09/06 06:31:10;;;;;;;21.17;19.98;;;;;;;;;;5000861;28;20026;-58
2022/09/06 06:33:36;;;;;;;18.52;17.42;;;;;;;;;;4994800;28;20042;-58
2022/09/06 06:36:16;;;;;;;19.33;18.23;;;;;;;;;;4996820;28;20450;-58
2022/09/06 06:38:45;;;;;;;17.80;16.80;;;;;;;;;;4996238;28;20038;-58
2022/09/06 06:41:12;;;;;;;18.50;17.50;;;;;;;;;;4996047;28;20040;-58
2022/09/06 06:43:38;;;;;;;21.35;20.23;;;;;;;;;;4994984;28;20088;-58
2022/09/06 06:46:12;;;;;;;21.73;20.48;;;;;;;;;;4997068;28;20026;-58
2022/09/06 06:48:39;;;;;;;19.20;18.13;;;;;;;;;;4998192;28;20045;-59
2022/09/06 06:51:05;;;;;;;21.48;20.33;;;;;;;;;;4996020;28;20030;-58
2022/09/06 06:53:31;;;;;;;18.83;17.73;;;;;;;;;;4999989;28;20030;-58
2022/09/06 06:55:57;;;;;;;16.67;15.77;;;;;;;;;;4995362;28;20034;-58
2022/09/06 06:58:22;;;;;;;22.98;21.73;;;;;;;;;;4987174;28;20025;-58
2022/09/06 07:00:48;;;;;;;11.85;10.88;;;;;;;;;;4996214;28;20042;-58
2022/09/06 07:03:13;;;;;;;16.73;15.82;;;;;;;;;;4996925;28;20042;-58
2022/09/06 07:05:39;;;;;;;10.85;10.15;;;;;;;;;;4995351;28;20069;-58
2022/09/06 07:08:06;;;;;;;9.57;8.98;;;;;;;;;;5001908;28;20411;-61
2022/09/06 07:10:32;;;;;;;11.38;10.68;;;;;;;;;;4999591;28;20097;-60
2022/09/06 07:12:57;;;;;;;15.00;14.13;;;;;;;;;;4996813;28;20491;-61
2022/09/06 07:15:23;;;;;;;12.82;12.02;;;;;;;;;;4996278;28;20034;-61
2022/09/06 07:17:48;;;;;;;12.18;11.48;;;;;;;;;;4998134;28;20041;-61
2022/09/06 07:20:14;;;;;;;10.57;9.98;;;;;;;;;;4998820;28;20368;-61
2022/09/06 07:22:40;;;;;;;11.90;11.10;;;;;;;;;;4998071;28;20033;-60
2022/09/06 07:25:06;;;;;;;11.68;10.98;;;;;;;;;;4995616;28;20531;-60
2022/09/06 07:27:32;;;;;;;11.88;11.18;;;;;;;;;;4994500;28;20030;-60
2022/09/06 07:29:57;;;;;;;11.38;10.68;;;;;;;;;;4998460;28;20034;-60
2022/09/06 07:32:23;;;;;;;12.57;11.82;;;;;;;;;;4999240;28;20113;-60
2022/09/06 07:34:48;;;;;;;11.35;10.65;;;;;;;;;;4997733;28;20034;-60
2022/09/06 07:37:14;;;;;;;15.23;14.38;;;;;;;;;;5000192;28;20600;-60
2022/09/06 07:39:40;;;;;;;13.17;12.40;;;;;;;;;;5000289;28;20530;-60
2022/09/06 07:42:05;;;;;;;15.00;14.10;;;;;;;;;;5003108;28;20030;-60
2022/09/06 07:44:31;;;;;;;19.33;18.25;;;;;;;;;;4999476;28;20506;-60
2022/09/06 07:46:56;;;;;;;20.70;19.60;;;;;;;;;;5000839;28;20121;-60
2022/09/06 07:49:21;;;;;;;23.35;22.08;;;;;;;;;;4996797;28;20038;-60
2022/09/06 07:51:47;;;;;;;20.10;19.00;;;;;;;;;;5002258;28;20039;-61
2022/09/06 07:54:13;;;;;;;24.17;22.90;;;;;;;;;;5003583;28;20371;-61
2022/09/06 07:56:38;;;;;;;30.35;28.75;;;;;;;;;;5001643;28;20048;-60
2022/09/06 07:59:03;;;;;;;26.15;24.77;;;;;;;;;;5000743;28;20483;-60
2022/09/06 08:01:30;;;;;;;31.80;30.15;;;;;;;;;;5002074;28;20111;-60
2022/09/06 08:04:01;;;;;;;37.78;35.83;;;;;;;;;;5001240;28;20116;-60
2022/09/06 08:06:30;;;;;;;34.03;32.03;;;;;;;;;;5000796;28;20368;-61
2022/09/06 08:08:56;;;;;;;43.95;41.65;;;;;;;;;;4999839;28;20462;-60
2022/09/06 08:11:23;;;;;;;32.53;30.83;;;;;;;;;;4996884;28;20026;-60
2022/09/06 08:13:50;;;;;;;30.60;29.00;;;;;;;;;;5000071;28;20385;-61
2022/09/06 08:16:16;;;;;;;31.05;29.45;;;;;;;;;;5000997;28;20113;-61
2022/09/06 08:18:42;;;;;;;22.83;21.60;;;;;;;;;;4999931;28;20576;-61
2022/09/06 08:21:14;;;;;;;27.55;26.05;;;;;;;;;;5000887;28;20404;-61
2022/09/06 08:23:44;;;;;;;26.45;25.05;;;;;;;;;;4999011;28;20436;-61
2022/09/06 08:26:10;;;;;;;25.20;23.90;;;;;;;;;;4999836;28;20645;-61
2022/09/06 08:28:36;;;;;;;30.23;28.63;;;;;;;;;;4998483;28;20273;-61
2022/09/06 08:31:06;;;;;;;20.83;19.73;;;;;;;;;;5000436;28;20048;-61
2022/09/06 08:33:32;;;;;;;19.55;18.35;;;;;;;;;;4999341;28;20115;-61
2022/09/06 08:35:58;;;;;;;21.65;20.45;;;;;;;;;;5001022;28;20459;-61
2022/09/06 08:38:24;;;;;;;22.90;21.70;;;;;;;;;;4997130;28;20030;-61
2022/09/06 08:40:51;;;;;;;20.63;19.52;;;;;;;;;;4997476;28;20038;-61
2022/09/06 08:43:19;;;;;;;18.70;17.67;;;;;;;;;;5002042;28;20034;-61
2022/09/06 08:45:49;;;;;;;21.20;20.00;;;;;;;;;;4999084;28;20042;-61
2022/09/06 08:48:14;;;;;;;;;;;;;;;;;;5000380;28;20048;-61
2022/09/06 08:50:45;;;;;;;19.88;18.77;;;;;;;;;;4997949;28;19909;-61
2022/09/06 08:53:17;;;;;;;20.25;19.15;;;;;;;;;;4998175;28;20026;-61
2022/09/06 08:55:58;;;;;;;24.30;23.00;;;;;;;;;;4997255;28;20044;-61
2022/09/06 08:58:33;;;;;;;18.35;17.35;;;;;;;;;;4998346;28;20125;-61
2022/09/06 09:01:02;;;;;;;24.33;22.50;;;;;;;;;;5000305;28;20037;-61
2022/09/06 09:03:35;;;;;;;22.38;21.17;;;;;;;;;;4997443;28;20042;-61
2022/09/06 09:06:04;;;;;;;23.25;22.00;;;;;;;;;;5000849;28;20030;-61
2022/09/06 09:08:43;;;;;;;21.25;20.15;;;;;;;;;;4997771;28;20367;-62
2022/09/06 09:11:13;;;;;;;31.70;30.00;;;;;;;;;;5000756;28;20041;-61
2022/09/06 09:13:44;;;;;;;;;;;;;;;;;;4998093;28;20676;-61
2022/09/06 09:16:10;;;;;;;26.52;25.08;;;;;;;;;;4996062;28;20051;-61
2022/09/06 09:18:38;;;;;;;30.58;28.98;;;;;;;;;;4999725;28;20125;-61
2022/09/06 09:21:04;;;;;;;27.70;26.23;;;;;;;;;;4998050;28;20045;-61
2022/09/06 09:23:30;;;;;;;41.63;39.50;;;;;;;;;;4997166;28;20026;-61
2022/09/06 09:26:01;;;;;;;35.40;32.97;;;;;;;;;;4996607;28;20033;-61
2022/09/06 09:28:26;;;;;;;47.83;45.38;;;;;;;;;;4997528;28;20033;-61
2022/09/06 09:30:53;;;;;;;51.63;49.03;;;;;;;;;;4996831;28;20107;-61
2022/09/06 09:33:46;;;;;;;38.33;36.33;;;;;;;;;;4997268;28;20449;-61
2022/09/06 09:36:12;;;;;;;52.65;49.92;;;;;;;;;;4995430;28;20073;-62
2022/09/06 09:38:48;;;;;;;63.10;59.90;;;;;;;;;;4997608;28;20037;-61
2022/09/06 09:41:32;;;;;;;78.00;74.13;;;;;;;;;;4997867;28;20372;-61
2022/09/06 09:44:29;;;;;;;70.30;66.70;;;;;;;;;;4996848;28;20104;-61
2022/09/06 09:46:55;;;;;;;94.68;90.00;;;;;;;;;;4981475;28;20108;-61
2022/09/06 09:49:20;;;;;;;88.32;83.97;;;;;;;;;;5004612;28;20046;-61
2022/09/06 09:52:08;;;;;;;100.72;95.72;;;;;;;;;;4997249;28;20130;-62
2022/09/06 09:54:36;;;;;;;93.55;88.95;;;;;;;;;;4999291;28;20464;-62
2022/09/06 09:57:07;;;;;;;91.53;87.00;;;;;;;;;;4999105;28;20102;-61
2022/09/06 09:59:46;;;;;;;96.65;91.90;;;;;;;;;;4999778;28;20045;-62
2022/09/06 10:02:40;;;;;;;84.05;79.90;;;;;;;;;;4997228;28;20041;-61
2022/09/06 10:05:18;;;;;;;96.18;91.47;;;;;;;;;;4998754;28;20034;-61
2022/09/06 10:07:53;;;;;;;71.65;67.10;;;;;;;;;;4998776;28;20037;-62
2022/09/06 10:10:21;;;;;;;75.15;71.43;;;;;;;;;;4998977;28;20033;-62
2022/09/06 10:12:46;;;;;;;84.30;79.90;;;;;;;;;;4996290;28;20025;-62
2022/09/06 10:15:33;;;;;;;94.03;89.35;;;;;;;;;;4998556;28;20468;-62
2022/09/06 10:17:58;;;;;;;97.18;92.40;;;;;;;;;;4996064;28;20033;-62
2022/09/06 10:20:42;;;;;;;78.63;74.60;;;;;;;;;;5000749;28;20495;-62
2022/09/06 10:23:40;;;;;;;80.38;76.35;;;;;;;;;;4997124;28;20042;-62
2022/09/06 10:26:37;;;;;;;94.15;89.53;;;;;;;;;;4998645;28;20674;-61
2022/09/06 10:29:08;;;;;;;46.92;44.55;;;;;;;;;;4995117;28;20028;-61
2022/09/06 10:32:01;;;;;;;60.72;57.70;;;;;;;;;;4998798;28;20124;-61
2022/09/06 10:34:48;;;;;;;58.90;55.90;;;;;;;;;;4999427;28;20073;-62
2022/09/06 10:37:28;;;;;;;54.92;52.13;;;;;;;;;;4996974;28;20036;-63
2022/09/06 10:40:05;;;;;;;55.10;52.30;;;;;;;;;;4992122;28;20341;-62
2022/09/06 10:42:52;;;;;;;69.28;65.82;;;;;;;;;;4998130;28;20038;-62
2022/09/06 10:45:43;;;;;;;75.50;71.80;;;;;;;;;;4996927;28;20517;-63
2022/09/06 10:48:18;;;;;;;79.53;75.57;;;;;;;;;;4997615;28;20106;-63
2022/09/06 10:50:51;;;;;;;105.97;100.78;;;;;;;;;;4998881;28;20030;-63
2022/09/06 10:53:20;;;;;;;113.43;107.82;;;;;;;;;;5029879;28;20042;-63
2022/09/06 10:55:51;;;;;;;88.10;83.75;;;;;;;;;;4997168;28;20034;-62
2022/09/06 10:58:24;;;;;;;97.05;92.22;;;;;;;;;;4995641;28;20038;-62
2022/09/06 11:00:52;;;;;;;108.63;103.25;;;;;;;;;;4999131;28;20457;-62
2022/09/06 11:03:35;;;;;;;93.78;89.18;;;;;;;;;;4999104;28;20041;-60
2022/09/06 11:06:06;;;;;;;81.97;77.93;;;;;;;;;;4998619;28;20084;-60
2022/09/06 11:08:53;;;;;;;49.88;46.80;;;;;;;;;;4998308;28;20030;-59
2022/09/06 11:11:37;;;;;;;35.05;32.55;;;;;;;;;;5001746;28;20030;-61
2022/09/06 11:14:08;;;;;;;41.35;39.05;;;;;;;;;;5000271;28;20030;-61
2022/09/06 11:16:42;;;;;;;78.35;74.45;;;;;;;;;;5001655;28;20030;-61
2022/09/06 11:19:22;;;;;;;67.07;63.78;;;;;;;;;;4998951;28;20352;-61
2022/09/06 11:21:50;;;;;;;;;;;;;;;;;;5015526;28;20042;-61
2022/09/06 11:24:42;;;;;;;31.40;29.75;;;;;;;;;;5000651;28;19913;-62
2022/09/06 11:27:27;;;;;;;27.38;25.90;;;;;;;;;;5001132;28;20038;-62
2022/09/06 11:29:56;;;;;;;45.38;43.08;;;;;;;;;;5000916;28;20384;-62
2022/09/06 11:32:40;;;;;;;36.95;35.05;;;;;;;;;;5000077;28;20038;-62
2022/09/06 11:35:24;;;;;;;48.42;45.95;;;;;;;;;;4999388;28;20068;-62
2022/09/06 11:38:17;;;;;;;50.65;48.10;;;;;;;;;;4996712;28;20031;-61
2022/09/06 11:40:53;;;;;;;52.70;49.95;;;;;;;;;;4999003;28;20092;-62
2022/09/06 11:43:47;;;;;;;65.65;62.38;;;;;;;;;;4999561;28;20037;-61
2022/09/06 11:46:32;;;;;;;52.90;50.20;;;;;;;;;;4997806;28;20091;-62
2022/09/06 11:49:01;;;;;;;80.82;76.82;;;;;;;;;;4999070;28;20250;-63
2022/09/06 11:51:34;;;;;;;100.82;95.85;;;;;;;;;;5000564;28;20037;-61
2022/09/06 11:54:08;;;;;;;196.25;186.70;;;;;;;;;;5000418;28;20034;-62
2022/09/06 11:57:10;;;;;;;143.75;136.68;;;;;;;;;;5000905;28;20168;-62
2022/09/06 11:59:39;;;;;;;202.07;192.30;;;;;;;;;;5001076;28;20037;-62
2022/09/06 12:02:26;;;;;;;204.95;195.02;;;;;;;;;;4999821;28;20038;-61
2022/09/06 12:04:57;;;;;;;246.57;234.63;;;;;;;;;;4999231;28;20117;-62
2022/09/06 12:07:24;;;;;;;256.10;243.65;;;;;;;;;;4998651;28;20438;-63
2022/09/06 12:09:49;;;;;;;234.13;222.75;;;;;;;;;;5000063;28;20427;-62
2022/09/06 12:12:44;;;;;;;241.60;229.93;;;;;;;;;;4998106;28;20121;-62
2022/09/06 12:15:27;;;;;;;244.15;232.32;;;;;;;;;;4995866;28;20042;-62
2022/09/06 12:17:52;;;;;;;242.93;231.20;;;;;;;;;;4996431;28;20132;-62
2022/09/06 12:20:53;;;;;;;258.80;246.20;;;;;;;;;;4996626;28;20461;-62
2022/09/06 12:23:33;;;;;;;267.08;254.02;;;;;;;;;;4998402;28;20042;-63
2022/09/06 12:26:01;;;;;;;266.45;253.48;;;;;;;;;;4998075;28;20030;-62
2022/09/06 12:28:31;;;;;;;261.73;248.93;;;;;;;;;;5000841;28;20053;-62
2022/09/06 12:30:57;;;;;;;257.65;245.15;;;;;;;;;;5000711;28;20028;-61
2022/09/06 12:33:30;;;;;;;263.20;250.38;;;;;;;;;;5001635;28;20030;-60
2022/09/06 12:36:14;;;;;;;271.58;258.33;;;;;;;;;;5002981;28;20041;-60
2022/09/06 12:38:53;;;;;;;267.05;254.00;;;;;;;;;;5002444;28;20112;-62
2022/09/06 12:41:19;;;;;;;284.20;270.30;;;;;;;;;;5002092;28;20046;-60
2022/09/06 12:43:44;;;;;;;279.25;265.65;;;;;;;;;;5002530;28;20030;-61
2022/09/06 12:46:10;;;;;;;272.52;259.27;;;;;;;;;;5000792;28;20034;-61
2022/09/06 12:48:40;;;;;;;274.58;261.08;;;;;;;;;;5001009;28;20053;-61
2022/09/06 12:51:18;;;;;;;280.02;266.27;;;;;;;;;;5002786;28;20784;-61
2022/09/06 12:53:54;;;;;;;294.20;279.77;;;;;;;;;;4999704;28;20527;-61
2022/09/06 12:56:22;;;;;;;274.33;260.88;;;;;;;;;;5002669;28;20371;-63
2022/09/06 12:58:48;;;;;;;283.90;270.02;;;;;;;;;;5001594;28;20026;-62
2022/09/06 13:01:31;;;;;;;295.38;280.98;;;;;;;;;;5003711;28;20030;-61
2022/09/06 13:04:01;;;;;;;268.88;255.77;;;;;;;;;;5001990;28;20044;-61
2022/09/06 13:06:32;;;;;;;272.17;258.88;;;;;;;;;;5003182;28;20041;-63
2022/09/06 13:08:58;;;;;;;284.40;270.50;;;;;;;;;;5005412;28;20034;-60
2022/09/06 13:11:35;;;;;;;277.25;263.60;;;;;;;;;;5002694;28;20041;-59
2022/09/06 13:14:09;;;;;;;268.38;255.18;;;;;;;;;;5002441;28;20122;-59
2022/09/06 13:16:44;;;;;;;281.27;267.48;;;;;;;;;;5000857;28;20038;-59
2022/09/06 13:19:16;;;;;;;278.85;265.17;;;;;;;;;;5004121;28;20485;-58
2022/09/06 13:21:43;;;;;;;293.90;279.45;;;;;;;;;;5002915;28;20034;-59
2022/09/06 13:24:45;;;;;;;298.25;283.50;;;;;;;;;;4999489;28;20520;-57
2022/09/06 13:27:24;;;;;;;295.20;280.45;;;;;;;;;;4995141;28;20049;-57
2022/09/06 13:30:28;;;;;;;291.75;277.40;;;;;;;;;;5001039;28;20673;-57
2022/09/06 13:32:53;;;;;;;300.05;285.27;;;;;;;;;;4956774;28;20050;-57
2022/09/06 13:35:23;;;;;;;309.98;294.55;;;;;;;;;;4998322;28;20033;-56
2022/09/06 13:37:49;;;;;;;350.98;333.20;;;;;;;;;;4995987;28;20080;-57
2022/09/06 13:40:39;;;;;;;305.90;290.73;;;;;;;;;;4995995;28;20977;-57
2022/09/06 13:43:10;;;;;;;273.00;259.70;;;;;;;;;;5001456;28;20052;-57
2022/09/06 13:45:36;;;;;;;275.30;261.65;;;;;;;;;;4997229;28;20042;-59
2022/09/06 13:48:01;;;;;;;305.77;290.70;;;;;;;;;;4996661;28;20045;-59
2022/09/06 13:50:26;;;;;;;301.50;286.60;;;;;;;;;;4997344;28;20041;-57
2022/09/06 13:52:52;;;;;;;321.77;305.73;;;;;;;;;;5002066;28;20058;-57
2022/09/06 13:55:20;;;;;;;290.35;275.98;;;;;;;;;;5000811;28;20037;-57
2022/09/06 13:57:46;;;;;;;282.15;268.30;;;;;;;;;;5004582;28;20038;-57
2022/09/06 14:00:12;;;;;;;292.38;277.92;;;;;;;;;;5000026;28;20133;-58
2022/09/06 14:02:40;;;;;;;261.90;249.05;;;;;;;;;;4996284;28;20609;-59
2022/09/06 14:05:06;;;;;;;280.52;266.67;;;;;;;;;;4991667;28;20053;-60
2022/09/06 14:07:31;;;;;;;349.38;331.75;;;;;;;;;;4997866;28;20037;-59
2022/09/06 14:09:56;;;;;;;333.55;316.88;;;;;;;;;;5000071;28;20667;-59
2022/09/06 14:12:22;;;;;;;344.70;327.33;;;;;;;;;;4995535;28;20483;-59
2022/09/06 14:14:47;;;;;;;324.90;308.65;;;;;;;;;;5001369;28;20053;-58
2022/09/06 14:17:13;;;;;;;288.77;274.58;;;;;;;;;;4998134;28;20041;-59
2022/09/06 14:19:40;;;;;;;374.95;355.77;;;;;;;;;;5000081;28;20167;-59
2022/09/06 14:22:06;;;;;;;341.48;324.30;;;;;;;;;;4997424;28;20165;-59
2022/09/06 14:24:31;;;;;;;329.20;312.73;;;;;;;;;;4996271;28;20403;-59
2022/09/06 14:26:57;;;;;;;316.10;300.30;;;;;;;;;;4998118;28;20400;-59
2022/09/06 14:29:22;;;;;;;287.17;273.02;;;;;;;;;;4999056;28;20037;-59
2022/09/06 14:31:47;;;;;;;371.55;352.63;;;;;;;;;;4998133;28;20515;-59
2022/09/06 14:34:13;;;;;;;347.42;329.92;;;;;;;;;;4999194;28;20057;-58
2022/09/06 14:36:38;;;;;;;313.83;298.20;;;;;;;;;;4999465;28;20045;-58
2022/09/06 14:39:04;;;;;;;331.77;315.13;;;;;;;;;;4998461;28;20408;-59